Welcome to Des Moines Iowa Weather. I am an independent private personal weather station on the Northwest Side of Des Moines, Iowa. Just East of Windsor Heights and just West of Glendale . This site is also mobile friendly.

There are no active watches, warnings or advisories


Visit our other weather sites:

Historical Data

Weather Station Setup



Weather Underground History page Text

Daily Summary for August 27, 2017 Units:  English    Metric   Both
« Previous Day
Next Day »
Daily Weekly Monthly Yearly Custom
  High: Low: Average:
Temperature: 77.6 °F 66.1 °F 70.8 °F
Dew Point: 69.0 °F 61.0 °F 65.8 °F
Humidity: 94 % 68 % 84 %
Wind Speed: 2.0 mph 0.0 mph 0.1 mph
Wind Gust: 6.0 mph - -
Wind:- - SSE
Pressure: 30.01 in 29.95 in -
Precipitation: 0.01 in    
Historical Graphs
 
 
Tabular Data for August 27, 2017
Time Temperature Dew Point Pressure Wind Wind Speed Wind Gust Humidity Rainfall Rate (Hourly)
00:04 71.9 °F 65.0 °F 30.00 in Calm     80 % 0.00 in
00:19 71.6 °F 66.0 °F 29.99 in Calm     81 % 0.00 in
00:34 71.3 °F 66.0 °F 29.99 in Calm   1.0 mph 82 % 0.00 in
00:49 70.9 °F 65.0 °F 29.99 in Calm     82 % 0.00 in
01:05 70.6 °F 65.0 °F 29.99 in Calm     83 % 0.00 in
01:20 70.2 °F 65.0 °F 29.99 in Calm     83 % 0.00 in
01:35 70.0 °F 65.0 °F 29.99 in Calm     84 % 0.00 in
01:50 69.8 °F 65.0 °F 29.99 in Calm     85 % 0.00 in
02:05 69.6 °F 65.0 °F 29.99 in Calm     85 % 0.00 in
02:20 69.4 °F 65.0 °F 29.99 in Calm     86 % 0.00 in
02:35 69.2 °F 65.0 °F 29.99 in Calm     86 % 0.00 in
02:50 69.0 °F 65.0 °F 29.98 in Calm     86 % 0.00 in
03:05 68.7 °F 65.0 °F 29.99 in Calm     87 % 0.00 in
03:20 68.5 °F 65.0 °F 29.98 in Calm     87 % 0.00 in
03:35 68.3 °F 65.0 °F 29.98 in Calm     88 % 0.00 in
03:50 68.1 °F 65.0 °F 29.97 in Calm     88 % 0.00 in
04:05 68.0 °F 65.0 °F 29.96 in Calm     89 % 0.00 in
04:20 67.7 °F 64.0 °F 29.95 in Calm     88 % 0.00 in
04:35 67.5 °F 64.0 °F 29.96 in Calm     89 % 0.00 in
04:50 67.3 °F 64.0 °F 29.96 in Calm     89 % 0.00 in
05:05 67.2 °F 64.0 °F 29.96 in Calm     89 % 0.00 in
05:20 67.2 °F 64.0 °F 29.96 in Calm     90 % 0.00 in
05:35 67.1 °F 64.0 °F 29.97 in Calm     90 % 0.00 in
05:50 67.0 °F 64.0 °F 29.98 in Calm     91 % 0.00 in
06:05 67.0 °F 64.0 °F 29.98 in Calm     91 % 0.00 in
06:20 66.9 °F 65.0 °F 29.98 in Calm     92 % 0.00 in
06:35 67.0 °F 65.0 °F 29.98 in Calm     92 % 0.00 in
06:50 67.1 °F 65.0 °F 29.97 in Calm     93 % 0.00 in
07:05 67.2 °F 65.0 °F 29.98 in Calm     93 % 0.00 in
07:20 67.4 °F 65.0 °F 29.98 in Calm     93 % 0.00 in
07:35 67.7 °F 66.0 °F 29.98 in Calm     93 % 0.00 in
07:50 67.9 °F 66.0 °F 29.97 in Calm     93 % 0.00 in
08:05 68.0 °F 66.0 °F 29.98 in Calm     94 % 0.00 in
08:20 68.2 °F 66.0 °F 29.98 in Calm     93 % 0.00 in
08:35 68.4 °F 66.0 °F 29.98 in Calm     93 % 0.00 in
08:50 68.5 °F 67.0 °F 29.99 in Calm     93 % 0.00 in
09:05 68.6 °F 67.0 °F 29.98 in Calm     93 % 0.00 in
09:21 68.6 °F 67.0 °F 29.99 in Calm     93 % 0.00 in
09:35 68.6 °F 67.0 °F 29.98 in Calm     93 % 0.00 in
09:51 68.6 °F 67.0 °F 29.99 in Calm     93 % 0.00 in
10:06 68.7 °F 67.0 °F 29.99 in Calm   1.0 mph 93 % 0.01 in
10:20 68.8 °F 67.0 °F 29.99 in Calm   1.0 mph 94 % 0.01 in
10:36 68.9 °F 67.0 °F 29.99 in Calm   3.0 mph 94 % 0.01 in
10:50 68.9 °F 67.0 °F 30.00 in Calm   2.0 mph 94 % 0.01 in
11:05 69.0 °F 67.0 °F 30.00 in Calm   2.0 mph 94 % 0.00 in
11:20 69.1 °F 67.0 °F 30.01 in Calm   2.0 mph 94 % 0.00 in
11:35 69.4 °F 68.0 °F 30.00 in Calm   2.0 mph 94 % 0.00 in
11:51 69.8 °F 68.0 °F 30.00 in Calm   2.0 mph 94 % 0.00 in
12:06 70.4 °F 69.0 °F 30.00 in Calm   3.0 mph 94 % 0.00 in
12:21 70.9 °F 69.0 °F 30.00 in Calm   4.0 mph 93 % 0.00 in
12:36 71.4 °F 69.0 °F 30.00 in Calm   1.0 mph 92 % 0.00 in
12:51 71.6 °F 69.0 °F 29.99 in Calm   3.0 mph 90 % 0.00 in
13:06 71.9 °F 69.0 °F 29.99 in Calm   1.0 mph 90 % 0.00 in
13:21 72.2 °F 69.0 °F 29.99 in ENE 2.0 mph 2.0 mph 89 % 0.00 in
13:36 72.3 °F 69.0 °F 29.99 in Calm   3.0 mph 88 % 0.00 in
13:51 72.7 °F 68.0 °F 29.99 in North 1.0 mph 4.0 mph 86 % 0.00 in
14:06 73.4 °F 68.0 °F 29.99 in NE 2.0 mph 5.0 mph 83 % 0.00 in
14:21 74.2 °F 68.0 °F 29.99 in NW 2.0 mph 6.0 mph 81 % 0.00 in
14:36 74.6 °F 68.0 °F 29.99 in Calm   4.0 mph 80 % 0.00 in
14:51 75.0 °F 67.0 °F 29.99 in Calm   5.0 mph 77 % 0.00 in
15:06 76.1 °F 68.0 °F 29.99 in Calm   6.0 mph 76 % 0.00 in
15:21 76.3 °F 68.0 °F 29.99 in ENE 2.0 mph 4.0 mph 76 % 0.00 in
15:36 76.0 °F 68.0 °F 29.99 in Calm   4.0 mph 75 % 0.00 in
15:51 76.6 °F 68.0 °F 29.98 in SE 1.0 mph 4.0 mph 74 % 0.00 in
16:06 77.1 °F 67.0 °F 29.99 in Calm   4.0 mph 70 % 0.00 in
16:21 77.3 °F 67.0 °F 29.98 in Calm   3.0 mph 70 % 0.00 in
16:36 77.0 °F 67.0 °F 29.98 in Calm   3.0 mph 70 % 0.00 in
16:51 77.2 °F 68.0 °F 29.98 in Calm   4.0 mph 72 % 0.00 in
17:06 77.6 °F 67.0 °F 29.98 in Calm   3.0 mph 69 % 0.00 in
17:21 77.5 °F 67.0 °F 29.98 in Calm   3.0 mph 71 % 0.00 in
17:36 76.4 °F 68.0 °F 29.98 in Calm   3.0 mph 74 % 0.00 in
17:51 76.8 °F 67.0 °F 29.98 in Calm   3.0 mph 71 % 0.00 in
18:06 76.2 °F 67.0 °F 29.97 in Calm   1.0 mph 74 % 0.00 in
18:21 76.4 °F 67.0 °F 29.96 in Calm   1.0 mph 72 % 0.00 in
18:36 76.5 °F 66.0 °F 29.96 in Calm     69 % 0.00 in
18:51 76.2 °F 65.0 °F 29.95 in Calm     68 % 0.00 in
19:06 75.7 °F 65.0 °F 29.96 in Calm     69 % 0.00 in
19:22 75.1 °F 65.0 °F 29.96 in Calm     71 % 0.00 in
19:37 74.1 °F 65.0 °F 29.96 in Calm     72 % 0.00 in
19:51 73.1 °F 65.0 °F 29.96 in Calm     75 % 0.00 in
20:07 72.3 °F 64.0 °F 29.96 in Calm     76 % 0.00 in
20:23 71.7 °F 65.0 °F 29.95 in Calm     78 % 0.00 in
20:37 71.2 °F 64.0 °F 29.96 in Calm     79 % 0.00 in
20:51 70.8 °F 65.0 °F 29.97 in Calm     81 % 0.00 in
21:07 70.4 °F 65.0 °F 29.98 in Calm     82 % 0.00 in
21:22 69.9 °F 64.0 °F 29.98 in Calm     82 % 0.00 in
21:36 69.5 °F 64.0 °F 29.97 in Calm     83 % 0.00 in
21:52 69.0 °F 64.0 °F 29.98 in Calm     83 % 0.00 in
22:07 68.6 °F 64.0 °F 29.99 in Calm   2.0 mph 84 % 0.00 in
22:22 68.1 °F 64.0 °F 29.99 in Calm   3.0 mph 85 % 0.00 in
22:37 67.8 °F 63.0 °F 29.99 in Calm     85 % 0.00 in
22:52 67.5 °F 63.0 °F 29.99 in Calm     85 % 0.00 in
23:07 67.1 °F 63.0 °F 29.99 in Calm   5.0 mph 85 % 0.00 in
23:22 66.8 °F 62.0 °F 29.99 in Calm   2.0 mph 85 % 0.00 in
23:37 66.4 °F 62.0 °F 29.99 in Calm   1.0 mph 84 % 0.00 in
23:52 66.1 °F 61.0 °F 29.99 in Calm     84 % 0.00 in
Des Moines Weather and Climate
Compliments of Weather Underground - 3 mb

Script developed by  Jim McMurry - jmcmurry@mwt.net Adapted for the template by  Wim van der Kuil - Leuven-Template.eu

You find our weather info also at:

Weather Underground

Equipment we use:

Weather-station
Davis VP2 Plus

Weather-program
Davis Weatherlink.Com

Weather-server
iMac (Retina 4K, 21.5-inch, Late 2015)

Provider
Hostmonster.com

Davis VP2 Plus

Davis Weatherlink.Com

iMac (Retina 4K, 21.5-inch, Late 2015)

Hostmonster.com